sensor_id;sensor_type;location;lat;lon;timestamp;P1;durP1;ratioP1;P2;durP2;ratioP2
37485;SDS011;23341;50.296;18.960;2023-06-26T00:03:30;8.68;;;6.72;;
37485;SDS011;23341;50.296;18.960;2023-06-26T00:08:35;10.45;;;7.25;;
37485;SDS011;23341;50.296;18.960;2023-06-26T00:13:39;9.57;;;7.07;;
37485;SDS011;23341;50.296;18.960;2023-06-26T00:18:45;9.00;;;6.85;;
37485;SDS011;23341;50.296;18.960;2023-06-26T00:23:50;9.18;;;8.07;;
37485;SDS011;23341;50.296;18.960;2023-06-26T00:28:55;9.98;;;6.82;;
37485;SDS011;23341;50.296;18.960;2023-06-26T00:34:01;10.43;;;7.70;;
37485;SDS011;23341;50.296;18.960;2023-06-26T00:39:05;8.90;;;6.80;;
37485;SDS011;23341;50.296;18.960;2023-06-26T00:44:10;9.82;;;7.88;;
37485;SDS011;23341;50.296;18.960;2023-06-26T00:49:16;12.85;;;8.02;;
37485;SDS011;23341;50.296;18.960;2023-06-26T00:54:20;8.30;;;7.45;;
37485;SDS011;23341;50.296;18.960;2023-06-26T00:59:25;8.30;;;7.50;;
37485;SDS011;23341;50.296;18.960;2023-06-26T01:04:31;10.73;;;8.13;;
37485;SDS011;23341;50.296;18.960;2023-06-26T01:09:36;9.10;;;7.63;;
37485;SDS011;23341;50.296;18.960;2023-06-26T01:14:41;9.80;;;8.32;;
37485;SDS011;23341;50.296;18.960;2023-06-26T01:19:47;12.02;;;8.95;;
37485;SDS011;23341;50.296;18.960;2023-06-26T01:24:56;14.15;;;8.65;;
37485;SDS011;23341;50.296;18.960;2023-06-26T01:30:15;11.57;;;8.68;;
37485;SDS011;23341;50.296;18.960;2023-06-26T01:35:20;9.82;;;8.57;;
37485;SDS011;23341;50.296;18.960;2023-06-26T01:40:26;11.75;;;8.50;;
37485;SDS011;23341;50.296;18.960;2023-06-26T01:45:32;12.82;;;9.02;;
37485;SDS011;23341;50.296;18.960;2023-06-26T01:50:38;11.82;;;8.15;;
37485;SDS011;23341;50.296;18.960;2023-06-26T01:55:44;12.45;;;9.57;;
37485;SDS011;23341;50.296;18.960;2023-06-26T02:00:52;11.60;;;8.45;;
37485;SDS011;23341;50.296;18.960;2023-06-26T02:05:58;17.25;;;9.20;;
37485;SDS011;23341;50.296;18.960;2023-06-26T02:11:02;13.48;;;8.65;;
37485;SDS011;23341;50.296;18.960;2023-06-26T02:16:09;17.17;;;9.55;;
37485;SDS011;23341;50.296;18.960;2023-06-26T02:21:16;14.23;;;9.25;;
37485;SDS011;23341;50.296;18.960;2023-06-26T02:26:22;17.30;;;9.65;;
37485;SDS011;23341;50.296;18.960;2023-06-26T02:31:28;10.90;;;8.70;;
37485;SDS011;23341;50.296;18.960;2023-06-26T02:36:33;12.30;;;9.20;;
37485;SDS011;23341;50.296;18.960;2023-06-26T02:41:40;13.30;;;9.50;;
37485;SDS011;23341;50.296;18.960;2023-06-26T02:46:46;13.35;;;10.43;;
37485;SDS011;23341;50.296;18.960;2023-06-26T02:51:51;14.18;;;10.20;;
37485;SDS011;23341;50.296;18.960;2023-06-26T02:57:00;13.10;;;9.80;;
37485;SDS011;23341;50.296;18.960;2023-06-26T03:02:07;14.73;;;9.40;;
37485;SDS011;23341;50.296;18.960;2023-06-26T03:07:16;18.73;;;9.88;;
37485;SDS011;23341;50.296;18.960;2023-06-26T03:12:20;18.90;;;10.25;;
37485;SDS011;23341;50.296;18.960;2023-06-26T03:17:26;16.85;;;10.90;;
37485;SDS011;23341;50.296;18.960;2023-06-26T03:22:37;20.40;;;11.20;;
37485;SDS011;23341;50.296;18.960;2023-06-26T03:27:42;20.17;;;10.43;;
37485;SDS011;23341;50.296;18.960;2023-06-26T03:32:50;22.88;;;11.55;;
37485;SDS011;23341;50.296;18.960;2023-06-26T03:37:54;20.80;;;11.75;;
37485;SDS011;23341;50.296;18.960;2023-06-26T03:42:59;20.13;;;11.55;;
37485;SDS011;23341;50.296;18.960;2023-06-26T03:48:07;22.20;;;11.95;;
37485;SDS011;23341;50.296;18.960;2023-06-26T03:53:12;18.90;;;10.98;;
37485;SDS011;23341;50.296;18.960;2023-06-26T03:58:16;25.42;;;13.93;;
37485;SDS011;23341;50.296;18.960;2023-06-26T04:03:22;20.35;;;11.18;;
37485;SDS011;23341;50.296;18.960;2023-06-26T04:08:26;20.15;;;10.88;;
37485;SDS011;23341;50.296;18.960;2023-06-26T04:13:31;18.65;;;11.50;;
37485;SDS011;23341;50.296;18.960;2023-06-26T04:18:36;13.05;;;9.88;;
37485;SDS011;23341;50.296;18.960;2023-06-26T04:23:41;20.80;;;11.20;;
37485;SDS011;23341;50.296;18.960;2023-06-26T04:28:45;13.95;;;10.93;;
37485;SDS011;23341;50.296;18.960;2023-06-26T04:33:52;17.27;;;11.60;;
37485;SDS011;23341;50.296;18.960;2023-06-26T04:38:57;16.92;;;10.75;;
37485;SDS011;23341;50.296;18.960;2023-06-26T04:44:02;14.77;;;10.82;;
37485;SDS011;23341;50.296;18.960;2023-06-26T04:49:08;14.95;;;10.10;;
37485;SDS011;23341;50.296;18.960;2023-06-26T04:54:13;16.63;;;10.05;;
37485;SDS011;23341;50.296;18.960;2023-06-26T04:59:18;16.17;;;10.65;;
37485;SDS011;23341;50.296;18.960;2023-06-26T05:04:23;21.10;;;11.57;;
37485;SDS011;23341;50.296;18.960;2023-06-26T05:09:28;17.45;;;11.75;;
37485;SDS011;23341;50.296;18.960;2023-06-26T05:14:33;12.05;;;9.15;;
37485;SDS011;23341;50.296;18.960;2023-06-26T05:19:38;21.63;;;11.15;;
37485;SDS011;23341;50.296;18.960;2023-06-26T05:24:43;17.85;;;10.50;;
37485;SDS011;23341;50.296;18.960;2023-06-26T05:29:51;12.20;;;9.15;;
37485;SDS011;23341;50.296;18.960;2023-06-26T05:34:57;15.25;;;10.30;;
37485;SDS011;23341;50.296;18.960;2023-06-26T05:40:06;13.60;;;10.25;;
37485;SDS011;23341;50.296;18.960;2023-06-26T05:45:12;12.73;;;9.13;;
37485;SDS011;23341;50.296;18.960;2023-06-26T05:50:18;10.02;;;8.82;;
37485;SDS011;23341;50.296;18.960;2023-06-26T05:55:24;14.68;;;8.30;;
37485;SDS011;23341;50.296;18.960;2023-06-26T06:00:29;14.85;;;8.00;;
37485;SDS011;23341;50.296;18.960;2023-06-26T06:05:35;10.20;;;7.28;;
37485;SDS011;23341;50.296;18.960;2023-06-26T06:10:40;11.82;;;8.27;;
37485;SDS011;23341;50.296;18.960;2023-06-26T06:15:44;11.18;;;8.07;;
37485;SDS011;23341;50.296;18.960;2023-06-26T06:20:50;10.07;;;7.63;;
37485;SDS011;23341;50.296;18.960;2023-06-26T06:25:55;11.95;;;6.85;;
37485;SDS011;23341;50.296;18.960;2023-06-26T06:30:59;11.90;;;6.50;;
37485;SDS011;23341;50.296;18.960;2023-06-26T06:36:05;12.18;;;6.72;;
37485;SDS011;23341;50.296;18.960;2023-06-26T06:41:09;9.18;;;6.65;;
37485;SDS011;23341;50.296;18.960;2023-06-26T06:46:15;13.23;;;6.45;;
37485;SDS011;23341;50.296;18.960;2023-06-26T06:51:20;7.85;;;6.53;;
37485;SDS011;23341;50.296;18.960;2023-06-26T06:56:25;7.53;;;6.72;;
37485;SDS011;23341;50.296;18.960;2023-06-26T07:01:30;9.57;;;7.22;;
37485;SDS011;23341;50.296;18.960;2023-06-26T07:06:36;10.43;;;6.78;;
37485;SDS011;23341;50.296;18.960;2023-06-26T07:11:40;5.90;;;5.30;;
37485;SDS011;23341;50.296;18.960;2023-06-26T07:16:45;5.53;;;5.03;;
37485;SDS011;23341;50.296;18.960;2023-06-26T07:21:51;9.32;;;5.60;;
37485;SDS011;23341;50.296;18.960;2023-06-26T07:26:55;6.97;;;5.80;;
37485;SDS011;23341;50.296;18.960;2023-06-26T07:31:59;8.18;;;5.38;;
37485;SDS011;23341;50.296;18.960;2023-06-26T07:37:06;5.97;;;5.47;;
37485;SDS011;23341;50.296;18.960;2023-06-26T07:42:14;11.05;;;6.18;;
37485;SDS011;23341;50.296;18.960;2023-06-26T07:47:19;6.60;;;5.03;;
37485;SDS011;23341;50.296;18.960;2023-06-26T07:52:25;6.78;;;5.10;;
37485;SDS011;23341;50.296;18.960;2023-06-26T07:57:29;8.70;;;5.60;;
37485;SDS011;23341;50.296;18.960;2023-06-26T08:02:35;5.90;;;5.30;;
37485;SDS011;23341;50.296;18.960;2023-06-26T08:07:41;7.40;;;6.10;;
37485;SDS011;23341;50.296;18.960;2023-06-26T08:12:45;9.90;;;6.78;;
37485;SDS011;23341;50.296;18.960;2023-06-26T08:17:51;8.77;;;5.28;;
37485;SDS011;23341;50.296;18.960;2023-06-26T08:22:57;8.20;;;5.43;;
37485;SDS011;23341;50.296;18.960;2023-06-26T08:28:01;6.18;;;5.30;;
37485;SDS011;23341;50.296;18.960;2023-06-26T08:33:06;7.05;;;5.20;;
37485;SDS011;23341;50.296;18.960;2023-06-26T08:38:16;6.88;;;5.20;;
37485;SDS011;23341;50.296;18.960;2023-06-26T08:48:29;6.15;;;4.45;;
37485;SDS011;23341;50.296;18.960;2023-06-26T08:53:40;4.68;;;4.22;;
37485;SDS011;23341;50.296;18.960;2023-06-26T08:58:51;4.50;;;4.20;;
37485;SDS011;23341;50.296;18.960;2023-06-26T09:03:56;5.10;;;4.50;;
37485;SDS011;23341;50.296;18.960;2023-06-26T09:09:02;4.57;;;4.10;;
37485;SDS011;23341;50.296;18.960;2023-06-26T09:14:07;8.48;;;4.00;;
37485;SDS011;23341;50.296;18.960;2023-06-26T09:19:13;4.35;;;3.40;;
37485;SDS011;23341;50.296;18.960;2023-06-26T09:24:19;5.05;;;4.47;;
37485;SDS011;23341;50.296;18.960;2023-06-26T09:29:25;3.65;;;3.35;;
37485;SDS011;23341;50.296;18.960;2023-06-26T09:34:31;5.32;;;3.65;;
37485;SDS011;23341;50.296;18.960;2023-06-26T09:39:38;4.45;;;3.83;;
37485;SDS011;23341;50.296;18.960;2023-06-26T09:44:43;4.38;;;3.60;;
37485;SDS011;23341;50.296;18.960;2023-06-26T09:49:49;8.98;;;4.40;;
37485;SDS011;23341;50.296;18.960;2023-06-26T09:55:08;4.78;;;3.70;;
37485;SDS011;23341;50.296;18.960;2023-06-26T10:00:14;4.00;;;3.45;;
37485;SDS011;23341;50.296;18.960;2023-06-26T10:05:19;4.60;;;3.88;;
37485;SDS011;23341;50.296;18.960;2023-06-26T10:10:25;4.60;;;4.10;;
37485;SDS011;23341;50.296;18.960;2023-06-26T10:15:30;5.25;;;3.70;;
37485;SDS011;23341;50.296;18.960;2023-06-26T10:20:35;5.05;;;4.47;;
37485;SDS011;23341;50.296;18.960;2023-06-26T10:25:42;5.03;;;4.05;;
37485;SDS011;23341;50.296;18.960;2023-06-26T10:30:50;6.65;;;4.82;;
37485;SDS011;23341;50.296;18.960;2023-06-26T10:41:23;5.53;;;4.07;;
37485;SDS011;23341;50.296;18.960;2023-06-26T10:46:28;4.50;;;4.10;;
37485;SDS011;23341;50.296;18.960;2023-06-26T10:51:37;5.05;;;3.85;;
37485;SDS011;23341;50.296;18.960;2023-06-26T10:56:44;5.35;;;3.70;;
37485;SDS011;23341;50.296;18.960;2023-06-26T11:01:54;4.87;;;3.57;;
37485;SDS011;23341;50.296;18.960;2023-06-26T11:07:13;4.43;;;4.00;;
37485;SDS011;23341;50.296;18.960;2023-06-26T11:12:35;4.78;;;4.28;;
37485;SDS011;23341;50.296;18.960;2023-06-26T11:17:46;4.22;;;3.80;;
37485;SDS011;23341;50.296;18.960;2023-06-26T11:22:52;5.57;;;4.28;;
37485;SDS011;23341;50.296;18.960;2023-06-26T11:28:00;4.10;;;3.80;;
37485;SDS011;23341;50.296;18.960;2023-06-26T11:33:05;7.80;;;4.55;;
37485;SDS011;23341;50.296;18.960;2023-06-26T11:38:11;6.35;;;4.30;;
37485;SDS011;23341;50.296;18.960;2023-06-26T11:43:17;5.93;;;4.05;;
37485;SDS011;23341;50.296;18.960;2023-06-26T11:48:21;5.47;;;4.13;;
37485;SDS011;23341;50.296;18.960;2023-06-26T11:53:26;5.78;;;4.13;;
37485;SDS011;23341;50.296;18.960;2023-06-26T11:58:32;4.28;;;3.88;;
37485;SDS011;23341;50.296;18.960;2023-06-26T12:32:52;3.78;;;3.42;;
37485;SDS011;23341;50.296;18.960;2023-06-26T12:37:58;5.18;;;4.13;;
37485;SDS011;23341;50.296;18.960;2023-06-26T12:50:08;4.35;;;4.05;;
37485;SDS011;23341;50.296;18.960;2023-06-26T12:55:13;4.03;;;3.63;;
37485;SDS011;23341;50.296;18.960;2023-06-26T13:06:44;3.90;;;3.60;;
37485;SDS011;23341;50.296;18.960;2023-06-26T13:11:49;5.40;;;3.97;;
37485;SDS011;23341;50.296;18.960;2023-06-26T13:23:30;3.88;;;3.42;;
37485;SDS011;23341;50.296;18.960;2023-06-26T13:28:35;5.88;;;3.75;;
37485;SDS011;23341;50.296;18.960;2023-06-26T13:33:39;4.32;;;3.92;;
37485;SDS011;23341;50.296;18.960;2023-06-26T13:38:45;4.03;;;3.72;;
37485;SDS011;23341;50.296;18.960;2023-06-26T13:43:52;4.00;;;3.50;;
37485;SDS011;23341;50.296;18.960;2023-06-26T13:55:18;3.88;;;3.47;;
37485;SDS011;23341;50.296;18.960;2023-06-26T14:00:27;5.18;;;3.67;;
37485;SDS011;23341;50.296;18.960;2023-06-26T14:12:09;4.38;;;3.42;;
37485;SDS011;23341;50.296;18.960;2023-06-26T14:17:14;3.88;;;3.50;;
37485;SDS011;23341;50.296;18.960;2023-06-26T14:22:20;5.93;;;3.67;;
37485;SDS011;23341;50.296;18.960;2023-06-26T14:34:32;4.40;;;4.00;;
37485;SDS011;23341;50.296;18.960;2023-06-26T14:39:37;3.55;;;3.25;;
37485;SDS011;23341;50.296;18.960;2023-06-26T14:44:42;6.63;;;3.40;;
37485;SDS011;23341;50.296;18.960;2023-06-26T14:49:51;4.38;;;4.05;;
37485;SDS011;23341;50.296;18.960;2023-06-26T14:54:55;4.30;;;3.90;;
37485;SDS011;23341;50.296;18.960;2023-06-26T15:06:57;3.63;;;3.33;;
37485;SDS011;23341;50.296;18.960;2023-06-26T15:12:02;7.15;;;3.67;;
37485;SDS011;23341;50.296;18.960;2023-06-26T15:31:04;4.63;;;4.22;;
37485;SDS011;23341;50.296;18.960;2023-06-26T15:36:09;3.92;;;3.63;;
37485;SDS011;23341;50.296;18.960;2023-06-26T15:47:55;3.90;;;3.50;;
37485;SDS011;23341;50.296;18.960;2023-06-26T15:53:01;5.50;;;3.80;;
37485;SDS011;23341;50.296;18.960;2023-06-26T15:58:14;9.23;;;4.30;;
37485;SDS011;23341;50.296;18.960;2023-06-26T16:03:20;3.70;;;3.40;;
37485;SDS011;23341;50.296;18.960;2023-06-26T16:08:25;5.82;;;3.85;;
37485;SDS011;23341;50.296;18.960;2023-06-26T16:13:29;10.02;;;5.75;;
37485;SDS011;23341;50.296;18.960;2023-06-26T16:18:35;4.20;;;3.80;;
37485;SDS011;23341;50.296;18.960;2023-06-26T16:30:30;4.15;;;3.75;;
37485;SDS011;23341;50.296;18.960;2023-06-26T16:47:38;3.92;;;3.63;;
37485;SDS011;23341;50.296;18.960;2023-06-26T16:52:43;4.50;;;3.95;;
37485;SDS011;23341;50.296;18.960;2023-06-26T16:57:47;5.82;;;3.60;;
37485;SDS011;23341;50.296;18.960;2023-06-26T17:08:38;3.75;;;3.35;;
37485;SDS011;23341;50.296;18.960;2023-06-26T17:13:44;4.57;;;4.18;;
37485;SDS011;23341;50.296;18.960;2023-06-26T17:18:52;6.75;;;3.90;;
37485;SDS011;23341;50.296;18.960;2023-06-26T17:23:58;3.45;;;3.15;;
37485;SDS011;23341;50.296;18.960;2023-06-26T17:29:05;4.53;;;3.40;;
37485;SDS011;23341;50.296;18.960;2023-06-26T17:40:29;8.83;;;3.70;;
37485;SDS011;23341;50.296;18.960;2023-06-26T17:45:34;4.03;;;3.72;;
37485;SDS011;23341;50.296;18.960;2023-06-26T17:57:03;6.90;;;4.20;;
37485;SDS011;23341;50.296;18.960;2023-06-26T18:02:08;3.90;;;3.60;;
37485;SDS011;23341;50.296;18.960;2023-06-26T18:14:22;4.22;;;3.80;;
37485;SDS011;23341;50.296;18.960;2023-06-26T18:19:27;4.15;;;3.78;;
37485;SDS011;23341;50.296;18.960;2023-06-26T18:24:31;3.85;;;3.55;;
37485;SDS011;23341;50.296;18.960;2023-06-26T18:36:45;5.07;;;3.80;;
37485;SDS011;23341;50.296;18.960;2023-06-26T18:41:51;3.92;;;3.63;;
37485;SDS011;23341;50.296;18.960;2023-06-26T18:46:57;4.22;;;3.88;;
37485;SDS011;23341;50.296;18.960;2023-06-26T18:52:03;6.68;;;4.35;;
37485;SDS011;23341;50.296;18.960;2023-06-26T18:57:07;6.93;;;4.05;;
37485;SDS011;23341;50.296;18.960;2023-06-26T19:09:45;7.65;;;3.95;;
37485;SDS011;23341;50.296;18.960;2023-06-26T19:14:49;6.35;;;4.38;;
37485;SDS011;23341;50.296;18.960;2023-06-26T19:19:55;6.75;;;4.07;;
37485;SDS011;23341;50.296;18.960;2023-06-26T19:25:00;8.65;;;4.90;;
37485;SDS011;23341;50.296;18.960;2023-06-26T19:30:06;4.28;;;3.88;;
37485;SDS011;23341;50.296;18.960;2023-06-26T19:40:41;7.30;;;4.47;;
37485;SDS011;23341;50.296;18.960;2023-06-26T19:45:47;7.53;;;4.20;;
37485;SDS011;23341;50.296;18.960;2023-06-26T19:50:53;8.27;;;4.20;;
37485;SDS011;23341;50.296;18.960;2023-06-26T19:56:00;10.82;;;4.60;;
37485;SDS011;23341;50.296;18.960;2023-06-26T20:01:07;13.80;;;5.22;;
37485;SDS011;23341;50.296;18.960;2023-06-26T20:06:11;12.23;;;5.80;;
37485;SDS011;23341;50.296;18.960;2023-06-26T20:11:17;10.95;;;5.47;;
37485;SDS011;23341;50.296;18.960;2023-06-26T20:16:21;9.80;;;5.35;;
37485;SDS011;23341;50.296;18.960;2023-06-26T20:21:26;9.95;;;5.53;;
37485;SDS011;23341;50.296;18.960;2023-06-26T20:26:32;11.70;;;6.57;;
37485;SDS011;23341;50.296;18.960;2023-06-26T20:31:37;11.85;;;7.97;;
37485;SDS011;23341;50.296;18.960;2023-06-26T20:36:42;11.70;;;7.63;;
37485;SDS011;23341;50.296;18.960;2023-06-26T20:41:48;12.55;;;7.70;;
37485;SDS011;23341;50.296;18.960;2023-06-26T20:46:53;10.52;;;7.30;;
37485;SDS011;23341;50.296;18.960;2023-06-26T20:52:02;16.80;;;9.13;;
37485;SDS011;23341;50.296;18.960;2023-06-26T20:57:11;13.10;;;8.63;;
37485;SDS011;23341;50.296;18.960;2023-06-26T21:02:15;10.65;;;8.25;;
37485;SDS011;23341;50.296;18.960;2023-06-26T21:07:20;13.93;;;9.90;;
37485;SDS011;23341;50.296;18.960;2023-06-26T21:12:26;19.10;;;9.93;;
37485;SDS011;23341;50.296;18.960;2023-06-26T21:17:31;17.15;;;9.63;;
37485;SDS011;23341;50.296;18.960;2023-06-26T21:22:36;11.00;;;7.53;;
37485;SDS011;23341;50.296;18.960;2023-06-26T21:27:42;8.20;;;6.32;;
37485;SDS011;23341;50.296;18.960;2023-06-26T21:32:46;8.80;;;6.28;;
37485;SDS011;23341;50.296;18.960;2023-06-26T21:37:51;10.60;;;6.07;;
37485;SDS011;23341;50.296;18.960;2023-06-26T21:42:56;7.22;;;6.13;;
37485;SDS011;23341;50.296;18.960;2023-06-26T21:48:01;7.35;;;5.57;;
37485;SDS011;23341;50.296;18.960;2023-06-26T21:53:06;8.30;;;5.40;;
37485;SDS011;23341;50.296;18.960;2023-06-26T21:58:12;6.32;;;5.20;;
37485;SDS011;23341;50.296;18.960;2023-06-26T22:03:16;7.53;;;4.97;;
37485;SDS011;23341;50.296;18.960;2023-06-26T22:08:21;7.55;;;4.60;;
37485;SDS011;23341;50.296;18.960;2023-06-26T22:13:28;6.88;;;5.10;;
37485;SDS011;23341;50.296;18.960;2023-06-26T22:18:32;6.43;;;4.90;;
37485;SDS011;23341;50.296;18.960;2023-06-26T22:23:36;7.68;;;5.13;;
37485;SDS011;23341;50.296;18.960;2023-06-26T22:28:43;6.60;;;5.57;;
37485;SDS011;23341;50.296;18.960;2023-06-26T22:33:47;5.82;;;4.90;;
37485;SDS011;23341;50.296;18.960;2023-06-26T22:38:52;7.78;;;5.95;;
37485;SDS011;23341;50.296;18.960;2023-06-26T22:43:58;11.63;;;6.80;;
37485;SDS011;23341;50.296;18.960;2023-06-26T22:49:02;12.40;;;6.95;;
37485;SDS011;23341;50.296;18.960;2023-06-26T22:54:07;12.77;;;6.72;;
37485;SDS011;23341;50.296;18.960;2023-06-26T22:59:12;13.52;;;7.32;;
37485;SDS011;23341;50.296;18.960;2023-06-26T23:04:17;10.50;;;6.03;;
37485;SDS011;23341;50.296;18.960;2023-06-26T23:09:21;5.88;;;5.00;;
37485;SDS011;23341;50.296;18.960;2023-06-26T23:14:28;9.80;;;5.38;;
37485;SDS011;23341;50.296;18.960;2023-06-26T23:19:32;6.00;;;4.63;;
37485;SDS011;23341;50.296;18.960;2023-06-26T23:24:39;6.88;;;4.53;;
37485;SDS011;23341;50.296;18.960;2023-06-26T23:29:46;5.22;;;4.22;;
37485;SDS011;23341;50.296;18.960;2023-06-26T23:34:51;6.35;;;4.32;;
37485;SDS011;23341;50.296;18.960;2023-06-26T23:39:55;6.40;;;4.43;;
37485;SDS011;23341;50.296;18.960;2023-06-26T23:45:02;5.97;;;5.10;;
37485;SDS011;23341;50.296;18.960;2023-06-26T23:50:08;10.57;;;4.82;;
37485;SDS011;23341;50.296;18.960;2023-06-26T23:55:14;5.30;;;4.72;;
